createdAt,value
2018-07-03T00:00:07.333Z,20.10
2018-07-03T00:02:34.674Z,20.10
2018-07-03T00:05:02.582Z,20.10
2018-07-03T00:07:29.924Z,20.10
2018-07-03T00:09:57.238Z,20.00
2018-07-03T00:12:24.637Z,20.00
2018-07-03T00:14:51.963Z,19.80
2018-07-03T00:17:19.373Z,19.70
2018-07-03T00:19:48.497Z,19.70
2018-07-03T00:22:15.911Z,19.70
2018-07-03T00:27:11.191Z,19.60
2018-07-03T00:29:38.531Z,19.50
2018-07-03T00:32:06.132Z,19.50
2018-07-03T00:34:33.456Z,19.50
2018-07-03T00:37:01.123Z,19.50
2018-07-03T00:39:28.463Z,19.30
2018-07-03T00:41:55.781Z,19.20
2018-07-03T00:44:23.180Z,19.10
2018-07-03T00:46:50.647Z,19.10
2018-07-03T00:49:17.996Z,19.00
2018-07-03T00:51:45.503Z,19.10
2018-07-03T00:54:13.076Z,19.00
2018-07-03T00:56:40.403Z,19.00
2018-07-03T00:59:07.917Z,19.00
2018-07-03T01:01:35.369Z,19.00
2018-07-03T01:06:31.124Z,18.70
2018-07-03T01:08:58.483Z,18.70
2018-07-03T01:11:25.827Z,18.70
2018-07-03T01:13:53.350Z,18.70
2018-07-03T01:16:20.776Z,18.60
2018-07-03T01:18:48.101Z,18.50
2018-07-03T01:21:15.558Z,18.60
2018-07-03T01:23:42.864Z,18.50
2018-07-03T01:26:10.239Z,18.40
2018-07-03T01:28:37.583Z,18.50
2018-07-03T01:31:05.088Z,18.40
2018-07-03T01:33:32.431Z,18.40
2018-07-03T01:35:59.819Z,18.30
2018-07-03T01:38:27.168Z,18.20
2018-07-03T01:40:54.504Z,18.30
2018-07-03T01:43:21.891Z,18.30
2018-07-03T01:45:49.223Z,18.40
2018-07-03T01:48:16.651Z,18.20
2018-07-03T01:50:44.029Z,18.10
2018-07-03T01:53:11.369Z,18.10
2018-07-03T01:55:38.699Z,18.10
2018-07-03T01:58:06.359Z,18.20
2018-07-03T02:00:33.732Z,18.20
2018-07-03T02:03:01.065Z,18.20
2018-07-03T02:05:28.393Z,18.20
2018-07-03T02:07:56.107Z,18.10
2018-07-03T02:10:24.487Z,18.10
2018-07-03T02:12:51.972Z,18.00
2018-07-03T02:15:19.317Z,18.10
2018-07-03T02:17:46.653Z,18.00
2018-07-03T02:20:14.002Z,17.90
2018-07-03T02:22:41.528Z,17.80
2018-07-03T02:25:08.863Z,17.70
2018-07-03T02:27:36.227Z,17.70
2018-07-03T02:30:03.992Z,17.50
2018-07-03T02:32:31.319Z,17.40
2018-07-03T02:34:58.651Z,17.40
2018-07-03T02:37:26.033Z,17.40
2018-07-03T02:39:53.441Z,17.30
2018-07-03T02:42:20.775Z,17.40
2018-07-03T02:44:48.090Z,17.40
2018-07-03T02:47:15.424Z,17.50
2018-07-03T02:49:42.756Z,17.50
2018-07-03T02:52:10.090Z,17.60
2018-07-03T02:54:37.408Z,17.70
2018-07-03T02:57:04.743Z,17.80
2018-07-03T02:59:32.115Z,17.80
2018-07-03T03:01:59.450Z,17.80
2018-07-03T03:04:26.806Z,17.90
2018-07-03T03:06:54.181Z,17.90
2018-07-03T03:09:21.503Z,17.90
2018-07-03T03:11:48.866Z,18.00
2018-07-03T03:14:16.206Z,18.00
2018-07-03T03:16:43.529Z,18.00
2018-07-03T03:19:10.857Z,17.90
2018-07-03T03:24:06.160Z,17.70
2018-07-03T03:26:33.520Z,17.70
2018-07-03T03:29:00.866Z,17.60
2018-07-03T03:31:28.233Z,17.50
2018-07-03T03:33:55.550Z,17.40
2018-07-03T03:36:22.901Z,17.40
2018-07-03T03:38:50.408Z,17.30
2018-07-03T03:41:17.762Z,17.30
2018-07-03T03:43:45.132Z,17.40
2018-07-03T03:46:12.516Z,17.50
2018-07-03T03:48:39.875Z,17.50
2018-07-03T03:51:07.188Z,17.50
2018-07-03T03:53:34.523Z,17.40
2018-07-03T03:56:01.875Z,17.20
2018-07-03T03:58:29.357Z,16.90
2018-07-03T04:00:56.765Z,16.70
2018-07-03T04:03:24.208Z,16.70
2018-07-03T04:05:51.521Z,16.70
2018-07-03T04:08:18.853Z,16.60
2018-07-03T04:10:46.215Z,16.60
2018-07-03T04:13:13.565Z,16.50
2018-07-03T04:15:40.898Z,16.50
2018-07-03T04:18:08.261Z,16.40
2018-07-03T04:20:35.643Z,16.40
2018-07-03T04:23:03.235Z,16.40
2018-07-03T04:25:30.590Z,16.30
2018-07-03T04:27:57.899Z,16.10
2018-07-03T04:30:25.249Z,16.10
2018-07-03T04:32:52.675Z,16.00
2018-07-03T04:35:20.048Z,16.00
2018-07-03T04:37:47.387Z,16.00
2018-07-03T04:40:14.774Z,16.00
2018-07-03T04:42:42.143Z,16.00
2018-07-03T04:47:37.459Z,16.00
2018-07-03T04:50:04.771Z,16.10
2018-07-03T04:52:32.147Z,16.20
2018-07-03T04:54:59.826Z,16.20
2018-07-03T04:57:27.284Z,16.30
2018-07-03T04:59:54.599Z,16.30
2018-07-03T05:02:21.999Z,16.40
2018-07-03T05:04:49.466Z,16.50
2018-07-03T05:07:16.834Z,16.60
2018-07-03T05:09:44.167Z,16.80
2018-07-03T05:12:11.492Z,16.90
2018-07-03T05:14:38.942Z,16.90
2018-07-03T05:17:06.290Z,17.00
2018-07-03T05:19:33.690Z,17.10
2018-07-03T05:22:01.015Z,17.20
2018-07-03T05:24:28.357Z,17.20
2018-07-03T05:26:56.409Z,17.30
2018-07-03T05:29:23.885Z,17.30
2018-07-03T05:31:51.358Z,17.40
2018-07-03T05:34:18.679Z,17.40
2018-07-03T05:39:13.301Z,17.60
2018-07-03T05:41:41.320Z,17.60
2018-07-03T05:44:08.817Z,17.60
2018-07-03T05:46:36.759Z,17.70
2018-07-03T05:49:04.258Z,17.80
2018-07-03T05:51:31.611Z,17.90
2018-07-03T05:53:59.105Z,18.00
2018-07-03T05:56:26.483Z,18.00
2018-07-03T05:58:53.756Z,18.10
2018-07-03T06:01:21.076Z,18.10
2018-07-03T06:03:48.435Z,18.20
2018-07-03T06:06:15.767Z,18.30
2018-07-03T06:11:10.276Z,18.40
2018-07-03T06:13:37.620Z,18.50
2018-07-03T06:16:04.955Z,18.60
2018-07-03T06:18:32.314Z,18.60
2018-07-03T06:20:59.776Z,18.70
2018-07-03T06:23:27.080Z,18.70
2018-07-03T06:25:54.431Z,18.70
2018-07-03T06:28:21.819Z,18.80
2018-07-03T06:30:49.258Z,18.90
2018-07-03T06:33:16.597Z,19.00
2018-07-03T06:35:44.000Z,19.00
2018-07-03T06:38:11.358Z,19.10
2018-07-03T06:40:38.726Z,19.20
2018-07-03T06:43:06.090Z,19.30
2018-07-03T06:45:33.469Z,19.30
2018-07-03T06:48:00.824Z,19.50
2018-07-03T06:50:29.151Z,19.60
2018-07-03T06:52:56.495Z,19.60
2018-07-03T06:55:23.842Z,19.70
2018-07-03T06:57:51.201Z,19.80
2018-07-03T07:00:18.533Z,19.90
2018-07-03T07:02:45.872Z,19.90
2018-07-03T07:05:13.192Z,20.00
2018-07-03T07:07:40.703Z,20.10
2018-07-03T07:10:08.599Z,20.20
2018-07-03T07:12:36.020Z,20.30
2018-07-03T07:15:03.330Z,20.40
2018-07-03T07:17:30.644Z,20.40
2018-07-03T07:19:58.056Z,20.50
2018-07-03T07:22:25.376Z,20.60
2018-07-03T07:24:52.813Z,20.70
2018-07-03T07:27:20.290Z,20.80
2018-07-03T07:29:47.748Z,20.80
2018-07-03T07:32:15.059Z,20.90
2018-07-03T07:34:42.391Z,21.00
2018-07-03T07:37:09.760Z,21.20
2018-07-03T07:39:37.085Z,21.30
2018-07-03T07:42:04.439Z,21.40
2018-07-03T07:44:31.765Z,21.40
2018-07-03T07:46:59.216Z,21.50
2018-07-03T07:49:26.572Z,21.60
2018-07-03T07:51:53.900Z,21.60
2018-07-03T07:54:21.248Z,21.80
2018-07-03T07:56:48.618Z,21.90
2018-07-03T07:59:15.937Z,21.90
2018-07-03T08:01:44.035Z,22.00
2018-07-03T08:04:11.356Z,22.00
2018-07-03T08:06:38.713Z,22.00
2018-07-03T08:09:07.151Z,22.10
2018-07-03T08:11:34.549Z,22.10
2018-07-03T08:14:01.887Z,22.20
2018-07-03T08:16:29.224Z,22.20
2018-07-03T08:21:23.693Z,22.30
2018-07-03T08:23:51.037Z,22.30
2018-07-03T08:26:18.353Z,22.40
2018-07-03T08:28:45.776Z,22.40
2018-07-03T08:31:13.151Z,22.50
2018-07-03T08:33:40.490Z,22.50
2018-07-03T08:38:41.694Z,22.50
2018-07-03T08:41:09.067Z,22.60
2018-07-03T08:43:36.520Z,22.60
2018-07-03T08:46:03.875Z,22.70
2018-07-03T08:48:31.652Z,22.70
2018-07-03T08:50:58.962Z,22.80
2018-07-03T08:53:26.308Z,22.90
2018-07-03T08:55:53.642Z,22.90
2018-07-03T09:00:48.237Z,23.00
2018-07-03T09:03:15.583Z,23.10
2018-07-03T09:05:42.893Z,23.10
2018-07-03T09:08:10.303Z,23.20
2018-07-03T09:10:37.670Z,23.20
2018-07-03T09:13:05.059Z,23.30
2018-07-03T09:15:32.402Z,23.30
2018-07-03T09:17:59.856Z,23.40
2018-07-03T09:20:27.132Z,23.40
2018-07-03T09:22:54.575Z,23.50
2018-07-03T09:25:21.911Z,23.50
2018-07-03T09:27:49.261Z,23.50
2018-07-03T09:30:16.650Z,23.60
2018-07-03T09:32:43.991Z,23.70
2018-07-03T09:35:11.325Z,23.70
2018-07-03T09:37:38.666Z,23.80
2018-07-03T09:40:06.007Z,23.90
2018-07-03T09:42:33.404Z,23.90
2018-07-03T09:45:00.769Z,23.90
2018-07-03T09:47:28.121Z,24.00
2018-07-03T09:49:55.781Z,24.00
2018-07-03T09:52:23.215Z,24.10
2018-07-03T09:54:50.748Z,24.20
2018-07-03T09:57:18.024Z,24.30
2018-07-03T09:59:45.479Z,24.40
2018-07-03T10:02:12.833Z,24.40
2018-07-03T10:04:40.172Z,24.30
2018-07-03T10:07:07.736Z,24.30
2018-07-03T10:09:35.111Z,24.50
2018-07-03T10:12:02.460Z,24.60
2018-07-03T10:14:29.798Z,24.70
2018-07-03T10:16:57.179Z,24.70
2018-07-03T10:19:24.533Z,24.70
2018-07-03T10:21:51.887Z,24.90
2018-07-03T10:24:19.219Z,25.10
2018-07-03T10:26:46.663Z,25.30
2018-07-03T10:29:13.979Z,25.40
2018-07-03T10:31:41.304Z,25.40
2018-07-03T10:34:08.674Z,25.40
2018-07-03T10:36:36.037Z,25.40
2018-07-03T10:39:05.432Z,25.60
2018-07-03T10:41:32.759Z,25.70
2018-07-03T10:44:00.106Z,25.70
2018-07-03T10:46:27.460Z,25.70
2018-07-03T10:48:54.895Z,25.80
2018-07-03T10:51:22.175Z,25.80
2018-07-03T10:53:49.548Z,25.80
2018-07-03T10:56:16.903Z,25.90
2018-07-03T10:58:44.287Z,25.90
2018-07-03T11:01:11.861Z,26.00
2018-07-03T11:03:39.183Z,25.80
2018-07-03T11:06:06.533Z,25.70
2018-07-03T11:08:33.868Z,25.70
2018-07-03T11:11:01.294Z,25.70
2018-07-03T11:13:28.708Z,25.90
2018-07-03T11:15:56.055Z,26.10
2018-07-03T11:18:23.390Z,26.20
2018-07-03T11:20:50.767Z,26.30
2018-07-03T11:23:18.142Z,26.40
2018-07-03T11:25:45.504Z,26.20
2018-07-03T11:28:12.826Z,26.20
2018-07-03T11:30:40.185Z,26.20
2018-07-03T11:33:07.530Z,26.30
2018-07-03T11:35:34.956Z,26.40
2018-07-03T11:38:02.268Z,26.40
2018-07-03T11:40:29.677Z,26.40
2018-07-03T11:42:57.090Z,26.30
2018-07-03T11:45:24.456Z,26.20
2018-07-03T11:47:51.836Z,26.30
2018-07-03T11:50:19.275Z,26.40
2018-07-03T11:52:47.373Z,26.40
2018-07-03T11:55:14.707Z,26.50
2018-07-03T12:00:09.290Z,26.70
2018-07-03T12:02:36.612Z,27.00
2018-07-03T12:05:03.964Z,27.10
2018-07-03T12:07:31.372Z,27.30
2018-07-03T12:09:58.722Z,27.40
2018-07-03T12:12:26.186Z,27.80
2018-07-03T12:14:53.495Z,28.10
2018-07-03T12:17:20.848Z,28.40
2018-07-03T12:19:48.185Z,28.80
2018-07-03T12:22:15.539Z,28.80
2018-07-03T12:24:42.872Z,28.60
2018-07-03T12:27:10.222Z,28.70
2018-07-03T12:29:37.566Z,28.90
2018-07-03T12:32:05.180Z,29.10
2018-07-03T12:34:32.551Z,29.40
2018-07-03T12:36:59.936Z,29.90
2018-07-03T12:39:27.364Z,30.40
2018-07-03T12:41:54.791Z,31.00
2018-07-03T12:44:22.111Z,31.80
2018-07-03T12:46:49.442Z,32.30
2018-07-03T12:49:16.763Z,33.10
2018-07-03T12:54:11.634Z,34.20
2018-07-03T12:56:38.936Z,34.60
2018-07-03T12:59:06.291Z,35.20
2018-07-03T13:01:33.652Z,35.70
2018-07-03T13:04:01.018Z,36.30
2018-07-03T13:06:28.416Z,36.60
2018-07-03T13:08:55.797Z,36.50
2018-07-03T13:11:23.242Z,36.90
2018-07-03T13:13:50.611Z,37.70
2018-07-03T13:16:18.701Z,38.10
2018-07-03T13:18:46.043Z,38.10
2018-07-03T13:21:13.463Z,39.30
2018-07-03T13:26:07.971Z,40.80
2018-07-03T13:28:35.314Z,40.40
2018-07-03T13:31:02.699Z,40.30
2018-07-03T13:33:30.115Z,39.90
2018-07-03T13:35:57.439Z,40.40
2018-07-03T13:38:24.810Z,40.70
2018-07-03T13:40:52.207Z,40.50
2018-07-03T13:43:19.625Z,40.80
2018-07-03T13:45:46.935Z,41.20
2018-07-03T13:48:14.340Z,41.60
2018-07-03T13:50:41.601Z,41.90
2018-07-03T13:53:08.921Z,41.40
2018-07-03T13:58:03.512Z,40.90
2018-07-03T14:00:30.875Z,39.90
2018-07-03T14:02:58.273Z,40.20
2018-07-03T14:05:25.599Z,41.40
2018-07-03T14:07:52.949Z,42.10
2018-07-03T14:10:20.303Z,41.60
2018-07-03T14:12:47.736Z,41.90
2018-07-03T14:15:15.064Z,41.90
2018-07-03T14:17:42.419Z,42.00
2018-07-03T14:20:09.815Z,42.00
2018-07-03T14:22:37.208Z,42.00
2018-07-03T14:25:04.644Z,41.80
2018-07-03T14:27:32.033Z,40.70
2018-07-03T14:29:59.404Z,40.40
2018-07-03T14:32:26.717Z,41.00
2018-07-03T14:34:54.079Z,41.10
2018-07-03T14:37:21.463Z,41.10
2018-07-03T14:39:48.874Z,41.10
2018-07-03T14:42:16.207Z,41.30
2018-07-03T14:44:43.653Z,40.50
2018-07-03T14:47:10.955Z,38.00
2018-07-03T14:49:38.279Z,37.10
2018-07-03T14:52:05.628Z,38.30
2018-07-03T14:54:32.991Z,38.80
2018-07-03T14:57:00.394Z,38.70
2018-07-03T14:59:27.751Z,38.60
2018-07-03T15:01:55.099Z,38.20
2018-07-03T15:04:22.486Z,36.90
2018-07-03T15:06:50.593Z,37.70
2018-07-03T15:09:18.771Z,38.30
2018-07-03T15:11:46.472Z,38.30
2018-07-03T15:14:14.116Z,39.00
2018-07-03T15:16:41.569Z,39.60
2018-07-03T15:19:14.328Z,40.00
2018-07-03T15:24:09.076Z,38.90
2018-07-03T15:26:37.738Z,38.50
2018-07-03T15:29:05.108Z,38.90
2018-07-03T15:31:32.467Z,38.70
2018-07-03T15:33:59.799Z,38.80
2018-07-03T15:36:27.149Z,39.30
2018-07-03T15:38:54.512Z,38.70
2018-07-03T15:41:21.898Z,38.80
2018-07-03T15:43:54.922Z,38.90
2018-07-03T15:46:22.295Z,38.70
2018-07-03T15:48:49.739Z,37.80
2018-07-03T15:51:17.135Z,37.80
2018-07-03T15:53:44.492Z,37.60
2018-07-03T15:56:11.888Z,36.60
2018-07-03T15:58:39.189Z,36.30
2018-07-03T16:01:06.615Z,35.50
2018-07-03T16:05:42.518Z,34.90
2018-07-03T16:09:15.241Z,34.80
2018-07-03T16:11:42.536Z,33.70
2018-07-03T16:14:10.666Z,32.50
2018-07-03T16:16:37.999Z,32.30
2018-07-03T16:19:10.811Z,32.20
2018-07-03T16:21:38.186Z,32.00
2018-07-03T16:24:05.547Z,31.80
2018-07-03T16:26:32.912Z,31.90
2018-07-03T16:29:00.285Z,31.80
2018-07-03T16:31:27.639Z,31.70
2018-07-03T16:33:56.057Z,31.50
2018-07-03T16:36:23.359Z,31.40
2018-07-03T16:38:50.723Z,31.20
2018-07-03T16:41:18.013Z,30.90
2018-07-03T16:43:45.423Z,30.80
2018-07-03T16:46:12.784Z,30.80
2018-07-03T16:48:40.541Z,30.70
2018-07-03T16:51:08.112Z,30.80
2018-07-03T16:53:35.479Z,31.00
2018-07-03T16:56:03.181Z,31.20
2018-07-03T16:58:30.522Z,31.20
2018-07-03T17:00:57.841Z,31.10
2018-07-03T17:03:25.202Z,31.20
2018-07-03T17:05:52.540Z,31.10
2018-07-03T17:08:19.878Z,30.90
2018-07-03T17:10:47.251Z,31.10
2018-07-03T17:13:14.572Z,31.20
2018-07-03T17:15:41.911Z,31.20
2018-07-03T17:18:09.328Z,31.20
2018-07-03T17:20:36.712Z,31.20
2018-07-03T17:23:04.327Z,30.90
2018-07-03T17:25:31.708Z,30.90
2018-07-03T17:27:59.140Z,31.00
2018-07-03T17:30:26.600Z,31.00
2018-07-03T17:32:53.975Z,31.20
2018-07-03T17:35:21.330Z,31.30
2018-07-03T17:37:48.672Z,31.40
2018-07-03T17:40:21.898Z,31.40
2018-07-03T17:42:55.102Z,31.50
2018-07-03T17:45:29.781Z,31.30
2018-07-03T17:47:57.100Z,30.90
2018-07-03T17:50:24.527Z,30.70
2018-07-03T17:52:52.063Z,30.40
2018-07-03T17:55:19.419Z,30.50
2018-07-03T17:57:46.766Z,30.70
2018-07-03T18:00:14.097Z,30.80
2018-07-03T18:02:41.783Z,30.80
2018-07-03T18:07:36.290Z,31.00
2018-07-03T18:10:04.260Z,31.00
2018-07-03T18:12:31.704Z,31.10
2018-07-03T18:14:59.120Z,31.10
2018-07-03T18:17:26.540Z,31.20
2018-07-03T18:19:53.870Z,31.10
2018-07-03T18:22:21.270Z,31.10
2018-07-03T18:24:48.595Z,31.10
2018-07-03T18:27:16.029Z,31.20
2018-07-03T18:29:43.335Z,31.10
2018-07-03T18:32:10.704Z,31.10
2018-07-03T18:34:38.048Z,31.00
2018-07-03T18:37:05.428Z,30.90
2018-07-03T18:39:32.824Z,30.80
2018-07-03T18:42:00.208Z,30.80
2018-07-03T18:44:27.527Z,30.70
2018-07-03T18:46:54.896Z,30.60
2018-07-03T18:49:22.247Z,30.40
2018-07-03T18:51:49.611Z,30.10
2018-07-03T18:54:16.980Z,30.00
2018-07-03T18:56:44.320Z,29.70
2018-07-03T18:59:11.746Z,29.60
2018-07-03T19:01:45.612Z,29.50
2018-07-03T19:04:12.936Z,29.40
2018-07-03T19:06:40.266Z,28.70
2018-07-03T19:09:08.126Z,28.20
2018-07-03T19:11:35.702Z,28.00
2018-07-03T19:14:03.055Z,27.90
2018-07-03T19:16:30.442Z,27.80
2018-07-03T19:18:57.999Z,27.70
2018-07-03T19:21:25.309Z,27.40
2018-07-03T19:23:52.628Z,27.10
2018-07-03T19:26:20.019Z,27.00
2018-07-03T19:28:47.441Z,26.90
2018-07-03T19:31:14.751Z,26.80
2018-07-03T19:33:42.090Z,26.70
2018-07-03T19:36:09.562Z,26.60
2018-07-03T19:38:36.809Z,26.40
2018-07-03T19:41:04.152Z,26.30
2018-07-03T19:43:35.119Z,26.10
2018-07-03T19:46:02.820Z,26.00
2018-07-03T19:48:30.187Z,25.70
2018-07-03T19:50:57.547Z,25.20
2018-07-03T19:53:25.043Z,25.10
2018-07-03T19:55:53.738Z,25.10
2018-07-03T19:58:21.386Z,25.00
2018-07-03T20:00:49.795Z,24.80
2018-07-03T20:03:17.111Z,24.60
2018-07-03T20:05:44.431Z,24.40
2018-07-03T20:10:38.964Z,24.30
2018-07-03T20:13:06.957Z,24.20
2018-07-03T20:15:34.545Z,24.10
2018-07-03T20:18:01.874Z,24.00
2018-07-03T20:20:29.230Z,24.00
2018-07-03T20:22:56.556Z,23.90
2018-07-03T20:25:23.892Z,23.90
2018-07-03T20:31:38.085Z,23.90
2018-07-03T20:34:06.164Z,23.80
2018-07-03T20:36:33.519Z,23.70
2018-07-03T20:39:00.887Z,23.60
2018-07-03T20:41:28.236Z,23.60
2018-07-03T20:43:55.596Z,23.60
2018-07-03T20:46:22.983Z,23.60
2018-07-03T20:48:50.321Z,23.50
2018-07-03T20:51:17.691Z,23.50
2018-07-03T20:53:45.055Z,23.50
2018-07-03T20:56:12.400Z,23.40
2018-07-03T20:58:39.733Z,23.30
2018-07-03T21:01:07.061Z,23.30
2018-07-03T21:03:34.443Z,23.20
2018-07-03T21:06:01.932Z,23.10
2018-07-03T21:08:29.230Z,23.00
2018-07-03T21:10:56.583Z,23.00
2018-07-03T21:13:23.913Z,23.00
2018-07-03T21:15:51.240Z,23.00
2018-07-03T21:18:18.600Z,22.90
2018-07-03T21:20:46.003Z,22.80
2018-07-03T21:23:13.318Z,22.70
2018-07-03T21:25:40.831Z,22.70
2018-07-03T21:28:08.187Z,22.70
2018-07-03T21:30:35.539Z,22.70
2018-07-03T21:33:02.895Z,22.70
2018-07-03T21:35:30.241Z,22.60
2018-07-03T21:37:57.602Z,22.60
2018-07-03T21:40:24.952Z,22.50
2018-07-03T21:42:52.275Z,22.50
2018-07-03T21:45:19.643Z,22.50
2018-07-03T21:47:47.011Z,22.50
2018-07-03T21:50:14.339Z,22.50
2018-07-03T21:52:41.677Z,22.50
2018-07-03T21:55:09.056Z,22.50
2018-07-03T21:57:36.405Z,22.40
2018-07-03T22:00:04.811Z,22.40
2018-07-03T22:02:32.166Z,22.50
2018-07-03T22:04:59.498Z,22.40
2018-07-03T22:07:26.832Z,22.40
2018-07-03T22:09:54.149Z,22.40
2018-07-03T22:12:21.484Z,22.40
2018-07-03T22:14:48.808Z,22.40
2018-07-03T22:17:16.152Z,22.30
2018-07-03T22:19:43.461Z,22.30
2018-07-03T22:24:37.952Z,22.20
2018-07-03T22:27:05.518Z,22.10
2018-07-03T22:29:33.091Z,22.20
2018-07-03T22:32:00.447Z,22.10
2018-07-03T22:34:27.812Z,22.10
2018-07-03T22:36:55.191Z,22.10
2018-07-03T22:39:22.690Z,21.90
2018-07-03T22:41:49.974Z,21.80
2018-07-03T22:44:17.331Z,21.80
2018-07-03T22:46:44.674Z,21.70
2018-07-03T22:49:12.039Z,21.60
2018-07-03T22:51:39.430Z,21.50
2018-07-03T22:54:06.977Z,21.50
2018-07-03T22:56:34.386Z,21.50
2018-07-03T22:59:01.923Z,21.30
2018-07-03T23:01:29.371Z,21.20
2018-07-03T23:03:56.727Z,21.20
2018-07-03T23:06:24.320Z,21.00
2018-07-03T23:08:51.980Z,20.90
2018-07-03T23:11:19.332Z,20.80
2018-07-03T23:13:46.711Z,20.80
2018-07-03T23:16:14.078Z,20.70
2018-07-03T23:18:41.419Z,20.70
2018-07-03T23:21:09.083Z,20.60
2018-07-03T23:23:36.449Z,20.60
2018-07-03T23:26:03.811Z,20.50
2018-07-03T23:29:19.590Z,20.60
2018-07-03T23:31:46.916Z,20.50
2018-07-03T23:34:14.241Z,20.40
2018-07-03T23:36:41.592Z,20.40
2018-07-03T23:39:10.288Z,20.40
2018-07-03T23:41:37.739Z,20.40
2018-07-03T23:44:05.400Z,20.40
2018-07-03T23:46:38.647Z,20.40
2018-07-03T23:49:11.879Z,20.40
2018-07-03T23:51:45.363Z,20.40
2018-07-03T23:54:18.568Z,20.40
2018-07-03T23:56:51.782Z,20.40
